Latest Coastal Weather Observations for Hogan Island

IDT60701

Issued at 10:22 pm EST Thursday 28 July 2016 (issued every 10 minutes, with the page automatically refreshed every 10 minutes)

About coastal observations | Map of coastal stations | Coastal observations for TAS | Marine services | Other Formats
Station Details ID: 200838 Name: HOGAN ISLAND Lat: -39.22 Lon: 146.98 Height: 116.0 m
Data from the previous 72 hours. | See also: Recent months at Hogan Island
Date/Time
EST
Temp
°C
Wind Pressure Rain since
9am
mm
Weather Cloud Vis
km
Sea
Height
m
Swell
Dir  Spd
kts
Gust
kts
hPa Trend Height
m
Period
s
Dir
28/10:00pm 11.4 WNW 33 39 1017.3 - 1.8 - - - - - - -
28/09:30pm 11.4 W 35 40 1017.4 - 1.6 - - - - - - -
28/09:00pm 10.6 WNW 32 38 1017.9 - 1.6 - - - - - - -
28/08:30pm 10.5 WNW 37 43 1017.5 - 1.6 - - - - - - -
28/08:00pm 11.0 WNW 35 41 1018.0 - 1.2 - - - - - - -
28/07:45pm 11.3 WNW 36 46 1017.7 - 1.2 - - - - - - -
28/07:30pm 11.5 WNW 41 47 1017.5 - 1.2 - - - - - - -
28/07:09pm 11.4 W 39 51 1017.2 - 1.2 - - - - - - -
28/07:00pm 11.6 W 39 46 1017.4 - 1.2 - - - - - - -
28/06:30pm 11.4 W 41 49 1017.0 - 1.2 - - - - - - -
28/06:04pm 11.3 W 36 47 1016.9 - 1.2 - - - - - - -
28/06:00pm 11.4 W 37 45 1017.5 - 1.2 - - - - - - -
28/05:32pm 10.5 W 41 53 1016.7 - 1.0 - - - - - - -
28/05:30pm 11.1 W 40 49 1016.8 - 0.8 - - - - - - -
28/05:00pm 11.1 W 43 52 1016.5 - 0.6 - - - - - - -
28/04:33pm 11.3 WNW 40 50 1016.5 - 0.4 - - - - - - -
28/04:30pm 11.5 WNW 42 50 1016.2 - 0.4 - - - - - - -
28/04:00pm 11.8 W 42 49 1016.0 - 0.4 - - - - - - -
28/03:30pm 11.6 W 45 52 1015.7 - 0.4 - - - - - - -
28/03:00pm 11.3 W 44 51 1015.9 - 0.4 - - - - - - -
28/02:34pm 11.1 W 42 54 1015.3 - 0.4 - - - - - - -
28/02:30pm 11.0 W 44 53 1015.6 - 0.4 - - - - - - -
28/02:26pm 11.0 W 46 56 1015.6 - 0.4 - - - - - - -
28/02:21pm 11.0 W 50 56 1015.1 - 0.4 - - - - - - -
28/02:05pm 10.7 WNW 37 47 1015.9 - 0.4 - - - - - - -
28/02:00pm 10.7 WNW 39 47 1016.1 - 0.4 - - - - - - -
28/01:30pm 10.7 WNW 39 49 1015.9 - 0.4 - - - - - - -
28/01:26pm 11.0 WNW 42 52 1016.0 - 0.4 - - - - - - -
28/01:00pm 10.7 WNW 40 45 1016.0 - 0.4 - - - - - - -
28/12:50pm 10.7 WNW 40 50 1016.1 - 0.4 - - - - - - -
28/12:30pm 11.2 W 42 49 1016.0 - 0.4 - - - - - - -
28/12:00pm 10.8 WNW 40 51 1016.7 - 0.4 - - - - - - -
28/11:56am 10.8 W 44 54 1016.4 - 0.4 - - - - - - -
28/11:30am 11.4 W 45 53 1016.0 - 0.4 - - - - - - -
28/11:00am 11.3 WNW 42 50 1016.4 - 0.4 - - - - - - -
28/10:30am 11.2 W 47 55 1016.4 - 0.4 - - - - - - -
28/10:18am 10.9 WNW 43 53 1016.6 - 0.2 - - - - - - -
28/10:00am 10.5 WNW 44 51 1016.5 - 0.2 - - - - - - -
28/09:30am 10.4 WNW 41 49 1016.5 - 0.2 - - - - - - -
28/09:00am 10.5 WNW 40 50 1016.7 - 3.8 - - - - - - -
28/08:30am 10.2 WNW 39 49 1016.7 - 3.4 - - - - - - -
28/08:10am 10.4 WNW 34 44 1016.4 - 3.2 - - - - - - -
28/08:00am 10.2 W 40 46 1016.3 - 3.2 - - - - - - -
28/07:30am 10.5 WNW 41 49 1016.1 - 3.2 - - - - - - -
28/07:00am 10.6 WNW 40 52 1016.1 - 3.0 - - - - - - -
28/06:35am 10.7 WNW 39 49 1015.5 - 3.0 - - - - - - -
28/06:30am 10.6 WNW 41 49 1015.4 - 3.0 - - - - - - -
28/06:16am 10.7 W 40 52 1015.1 - 2.8 - - - - - - -
28/06:00am 10.5 WNW 44 53 1015.2 - 2.8 - - - - - - -
28/05:30am 10.5 WNW 40 50 1015.0 - 2.6 - - - - - - -
28/05:29am 10.6 WNW 39 50 1015.1 - 2.6 - - - - - - -
28/05:00am 10.5 W 38 45 1015.2 - 2.0 - - - - - - -
28/04:30am 10.8 W 37 44 1014.9 - 1.6 - - - - - - -
28/04:00am 10.8 W 41 48 1014.4 - 1.6 - - - - - - -
28/03:30am 10.7 W 42 50 1014.1 - 1.6 - - - - - - -
28/03:00am 10.6 W 41 47 1014.7 - 1.6 - - - - - - -
28/02:30am 10.5 W 40 48 1014.8 - 1.6 - - - - - - -
28/02:00am 10.4 W 37 42 1015.1 - 1.6 - - - - - - -
28/01:30am 10.3 W 40 47 1015.1 - 1.4 - - - - - - -
28/01:00am 10.5 W 39 44 1015.1 - 1.2 - - - - - - -
28/12:30am 10.3 W 37 43 1015.3 - 1.2 - - - - - - -
28/12:00am 10.4 W 38 48 1015.1 - 1.2 - - - - - - -
 
Date/Time
EST
Temp
°C
Wind Pressure Rain since
9am
mm
Weather Cloud Vis
km
Sea
Height
m
Swell
Dir  Spd
kts
Gust
kts
hPa Trend Height
m
Period
s
Dir
27/11:30pm 10.4 WNW 39 47 1014.4 - 1.0 - - - - - - -
27/11:20pm 10.3 W 37 47 1014.5 - 1.0 - - - - - - -
27/11:00pm 10.6 W 41 49 1014.6 - 0.8 - - - - - - -
27/10:30pm 10.3 W 41 47 1014.6 - 0.8 - - - - - - -
27/10:07pm 10.8 W 45 55 1014.4 - 0.8 - - - - - - -
27/10:00pm 10.9 W 48 55 1014.2 - 0.8 - - - - - - -
27/09:30pm 10.5 W 42 53 1013.9 - 0.8 - - - - - - -
27/09:25pm 10.7 W 42 52 1014.3 - 0.8 - - - - - - -
27/09:00pm 10.3 W 44 51 1014.1 - 0.8 - - - - - - -
27/08:30pm 10.3 W 42 49 1014.0 - 0.8 - - - - - - -
27/08:08pm 10.1 W 40 52 1013.9 - 0.8 - - - - - - -
27/08:00pm 10.2 W 40 47 1014.2 - 0.8 - - - - - - -
27/07:30pm 9.5 W 42 51 1014.0 - 0.8 - - - - - - -
27/07:21pm 10.2 W 41 51 1013.8 - 0.8 - - - - - - -
27/07:00pm 9.5 W 42 50 1014.0 - 0.8 - - - - - - -
27/06:33pm 9.0 W 45 55 1013.5 - 0.8 - - - - - - -
27/06:30pm 9.0 W 47 55 1013.4 - 0.8 - - - - - - -
27/06:09pm 9.1 W 41 51 1013.2 - 0.8 - - - - - - -
27/06:00pm 9.5 W 43 51 1012.7 - 0.8 - - - - - - -
27/05:30pm 9.2 W 42 49 1012.3 - 0.8 - - - - - - -
27/05:03pm 9.2 W 37 47 1012.5 - 0.8 - - - - - - -
27/05:00pm 8.9 W 38 47 1012.6 - 0.8 - - - - - - -
27/04:32pm 8.0 W 42 52 1012.5 - 0.8 - - - - - - -
27/04:30pm 7.6 W 44 52 1012.5 - 0.8 - - - - - - -
27/04:01pm 9.5 W 42 52 1011.8 - 0.0 - - - - - - -
27/04:00pm 9.4 W 43 52 1011.8 - 0.0 - - - - - - -
27/03:30pm 10.2 W 42 50 1011.3 - 0.0 - - - - - - -
27/03:19pm 10.2 W 38 51 1011.0 - 0.0 - - - - - - -
27/03:00pm 10.8 W 38 46 1010.8 - 0.0 - - - - - - -
27/02:30pm 10.0 W 38 43 1010.9 - 0.0 - - - - - - -
27/02:00pm 10.4 W 36 43 1010.4 - 0.0 - - - - - - -
27/01:47pm 9.0 W 37 47 1010.5 - 0.0 - - - - - - -
27/01:30pm 8.6 W 37 43 1010.3 - 0.0 - - - - - - -
27/01:00pm 9.7 WSW 31 40 1010.2 - 0.0 - - - - - - -
27/12:59pm 9.7 WSW 30 40 1010.2 - 0.0 - - - - - - -
27/12:30pm 11.0 WSW 32 37 1010.2 - 0.0 - - - - - - -
27/12:00pm 9.9 WSW 34 40 1010.0 - 0.0 - - - - - - -
27/11:30am 10.2 WSW 33 37 1010.2 - 0.0 - - - - - - -
27/11:00am 10.0 WSW 32 38 1009.8 - 0.0 - - - - - - -
27/10:30am 9.3 WSW 34 41 1009.3 - 0.0 - - - - - - -
27/10:00am 9.3 WSW 35 43 1009.0 - 0.0 - - - - - - -
27/09:30am 8.8 WSW 33 39 1008.3 - 0.0 - - - - - - -
27/09:00am 8.8 SW 34 39 1007.4 - 2.0 - - - - - - -
27/08:30am 8.8 SW 31 38 1006.6 - 2.0 - - - - - - -
27/08:00am 8.7 SW 33 38 1005.7 - 2.0 - - - - - - -
27/07:30am 8.8 SW 30 40 1005.0 - 2.0 - - - - - - -
27/07:29am 8.6 SW 30 40 1005.0 - 2.0 - - - - - - -
27/07:25am 8.7 W 30 40 1004.8 - 1.6 - - - - - - -
27/07:00am 9.4 WNW 30 35 1003.9 - 0.8 - - - - - - -
27/06:30am 9.5 WNW 34 38 1003.3 - 0.8 - - - - - - -
27/06:00am 9.7 WNW 32 37 1003.1 - 0.8 - - - - - - -
27/05:30am 9.6 WNW 27 33 1003.0 - 0.8 - - - - - - -
27/05:00am 9.7 WNW 29 34 1002.8 - 0.8 - - - - - - -
27/04:30am 9.8 WNW 32 37 1002.5 - 0.8 - - - - - - -
27/04:00am 9.6 WNW 37 43 1002.2 - 0.8 - - - - - - -
27/03:30am 9.7 WNW 40 51 1001.8 - 0.8 - - - - - - -
27/03:02am 10.0 WNW 39 49 1001.5 - 0.8 - - - - - - -
27/03:00am 10.0 WNW 38 45 1001.9 - 0.8 - - - - - - -
27/02:57am 10.0 WNW 37 43 1001.8 - 0.8 - - - - - - -
27/02:30am 10.1 NW 26 37 1002.7 - 0.8 - - - - - - -
27/02:00am 10.0 NW 29 39 1002.7 - 0.8 - - - - - - -
27/01:33am 10.1 NW 28 38 1002.6 - 0.8 - - - - - - -
27/01:30am 10.1 NW 27 36 1002.6 - 0.8 - - - - - - -
27/01:00am 10.0 NW 30 40 1002.7 - 0.8 - - - - - - -
27/12:42am 10.0 NW 29 39 1003.1 - 0.8 - - - - - - -
27/12:30am 10.0 NW 30 39 1003.2 - 0.8 - - - - - - -
27/12:05am 9.7 NW 31 41 1003.2 - 0.8 - - - - - - -
27/12:00am 9.6 NW 30 39 1003.5 - 0.8 - - - - - - -
 
Date/Time
EST
Temp
°C
Wind Pressure Rain since
9am
mm
Weather Cloud Vis
km
Sea
Height
m
Swell
Dir  Spd
kts
Gust
kts
hPa Trend Height
m
Period
s
Dir
26/11:38pm 9.6 NW 32 42 1003.4 - 0.8 - - - - - - -
26/11:30pm 9.4 NW 35 42 1003.2 - 0.8 - - - - - - -
26/11:00pm 9.5 NW 34 42 1003.7 - 0.8 - - - - - - -
26/10:31pm 9.3 NW 32 42 1004.0 - 0.8 - - - - - - -
26/10:30pm 9.3 NW 33 42 1003.9 - 0.8 - - - - - - -
26/10:00pm 9.4 NW 30 42 1004.2 - 0.8 - - - - - - -
26/09:30pm 9.3 NW 34 47 1004.3 - 0.8 - - - - - - -
26/09:05pm 9.4 NW 29 39 1004.5 - 0.8 - - - - - - -
26/09:00pm 9.3 NW 30 38 1004.5 - 0.8 - - - - - - -
26/08:43pm 9.4 WNW 29 39 1004.6 - 0.8 - - - - - - -
26/08:30pm 9.4 NW 32 39 1004.4 - 0.8 - - - - - - -
26/08:03pm 9.0 NW 31 41 1005.0 - 0.8 - - - - - - -
26/08:00pm 9.0 NW 32 41 1004.9 - 0.8 - - - - - - -
26/07:30pm 8.9 NW 33 47 1005.1 - 0.8 - - - - - - -
26/07:29pm 8.9 NW 33 47 1005.0 - 0.8 - - - - - - -
26/07:00pm 9.0 WNW 34 41 1005.1 - 0.8 - - - - - - -
26/06:30pm 9.0 WNW 37 43 1004.9 - 0.8 - - - - - - -
26/06:22pm 9.0 WNW 37 47 1005.0 - 0.8 - - - - - - -
26/06:00pm 8.9 WNW 37 43 1005.0 - 0.8 - - - - - - -
26/05:30pm 8.8 WNW 35 43 1004.9 - 0.8 - - - - - - -
26/05:00pm 8.9 WNW 36 44 1005.0 - 0.8 - - - - - - -
26/04:45pm 8.8 WNW 39 49 1005.3 - 0.8 - - - - - - -
26/04:30pm 8.8 WNW 39 45 1005.1 - 0.8 - - - - - - -
26/04:00pm 9.0 WNW 39 45 1005.4 - 0.8 - - - - - - -
26/03:30pm 8.8 WNW 38 47 1005.3 - 0.8 - - - - - - -
26/03:18pm 8.8 WNW 37 47 1005.7 - 0.8 - - - - - - -
26/03:00pm 8.8 WNW 40 46 1005.7 - 0.8 - - - - - - -
26/02:36pm 8.9 WNW 41 51 1005.7 - 0.8 - - - - - - -
26/02:30pm 9.0 WNW 41 47 1006.1 - 0.8 - - - - - - -
26/02:00pm 8.9 WNW 42 50 1006.1 - 0.8 - - - - - - -
26/01:30pm 8.6 WNW 43 50 1006.1 - 0.8 - - - - - - -
26/01:00pm 7.8 WNW 37 46 1006.8 - 0.8 - - - - - - -
26/12:48pm 7.8 WNW 38 49 1007.0 - 0.8 - - - - - - -
26/12:30pm 7.7 WNW 34 42 1007.6 - 0.8 - - - - - - -
26/12:10pm 7.1 WNW 36 46 1007.2 - 0.8 - - - - - - -
26/12:00pm 7.3 WNW 33 41 1007.7 - 0.6 - - - - - - -
26/11:31am 6.6 WNW 37 47 1008.0 - 0.6 - - - - - - -
26/11:30am 6.4 WNW 38 47 1007.8 - 0.6 - - - - - - -
26/11:00am 6.7 WNW 42 54 1007.4 - 0.4 - - - - - - -
26/10:48am 7.4 WNW 40 51 1006.8 - 0.0 - - - - - - -
26/10:30am 8.1 WNW 34 42 1007.3 - 0.0 - - - - - - -
26/10:24am 7.7 WNW 31 42 1007.3 - 0.0 - - - - - - -
26/10:00am 7.6 WNW 34 41 1007.3 - 0.0 - - - - - - -
26/09:30am 7.9 W 34 41 1007.0 - 0.0 - - - - - - -
26/09:00am 7.9 W 38 50 1006.6 - 16.2 - - - - - - -
26/08:34am 7.3 W 42 52 1006.0 - 16.2 - - - - - - -
26/08:30am 7.5 W 39 48 1006.1 - 16.2 - - - - - - -
26/08:20am 9.2 W 40 50 1006.1 - 16.2 - - - - - - -
26/08:00am 8.3 W 38 44 1005.7 - 16.2 - - - - - - -
26/07:30am 7.5 W 41 49 1005.1 - 16.2 - - - - - - -
26/07:16am 7.4 W 50 60 1004.3 - 16.0 - - - - - - -
26/07:01am 7.9 W 37 48 1005.0 - 15.8 - - - - - - -
26/07:00am 7.9 W 36 44 1005.1 - 15.8 - - - - - - -
26/06:40am 8.2 W 44 58 1004.3 - 15.8 - - - - - - -
26/06:30am 8.1 W 45 52 1004.0 - 15.8 - - - - - - -
26/06:13am 7.9 W 47 57 1003.5 - 15.8 - - - - - - -
26/06:01am 8.1 W 53 58 1003.3 - 15.8 - - - - - - -
26/06:00am 8.0 W 41 58 1003.2 - 15.8 - - - - - - -
26/05:58am 8.1 W 38 50 1003.8 - 15.8 - - - - - - -
26/05:47am 6.9 W 37 58 1003.8 - 15.8 - - - - - - -
26/05:43am 6.4 WSW 48 62 1003.8 - 15.8 - - - - - - -
26/05:30am 7.0 W 44 59 1003.0 - 15.8 - - - - - - -
26/05:24am 7.3 WNW 42 56 1002.7 - 15.8 - - - - - - -
26/05:20am 6.9 WNW 42 54 1003.0 - 15.8 - - - - - - -
26/05:09am 6.1 W 54 64 1002.0 - 15.8 - - - - - - -
26/05:07am 6.6 W 57 64 1001.3 - 15.8 - - - - - - -
26/05:05am 8.5 WNW 45 56 1002.4 - 15.8 - - - - - - -
26/05:00am 8.3 WNW 42 51 1002.2 - 15.8 - - - - - - -
26/04:40am 7.8 WNW 45 55 1002.2 - 15.8 - - - - - - -
26/04:30am 7.1 WNW 43 52 1001.7 - 15.6 - - - - - - -
26/04:27am 7.1 W 41 52 1002.1 - 15.6 - - - - - - -
26/04:23am 6.8 W 41 54 1002.3 - 15.6 - - - - - - -
26/04:00am 5.9 W 51 62 1001.6 - 13.2 - - - - - - -
26/03:52am 8.6 W 52 62 1000.9 - 12.8 - - - - - - -
26/03:51am 8.7 W 54 62 1000.7 - 12.8 - - - - - - -
26/03:45am 8.3 WNW 42 59 1001.0 - 12.8 - - - - - - -
26/03:30am 7.7 WNW 48 57 1001.1 - 12.8 - - - - - - -
26/03:00am 7.0 WNW 50 66 1000.5 - 12.6 - - - - - - -
26/02:30am 4.3 W 46 61 1001.4 - 11.6 - - - - - - -
26/02:01am 6.9 W 45 56 1000.6 - 11.2 - - - - - - -
26/02:00am 6.8 W 44 53 1000.7 - 11.2 - - - - - - -
26/01:30am 5.5 W 47 58 1000.5 - 6.6 - - - - - - -
26/01:00am 7.5 WNW 48 60 999.4 - 6.0 - - - - - - -
26/12:31am 6.8 WNW 45 55 1000.1 - 5.6 - - - - - - -
26/12:30am 6.6 WNW 46 55 999.9 - 5.6 - - - - - - -
26/12:00am 8.2 WNW 53 65 999.3 - 4.8 - - - - - - -
 
Date/Time
EST
Temp
°C
Wind Pressure Rain since
9am
mm
Weather Cloud Vis
km
Sea
Height
m
Swell
Dir  Spd
kts
Gust
kts
hPa Trend Height
m
Period
s
Dir
25/11:30pm 7.6 WNW 55 69 999.4 - 4.8 - - - - - - -
25/11:24pm 7.6 WNW 59 69 998.8 - 4.8 - - - - - - -
25/11:19pm 7.4 WNW 61 67 998.3 - 4.8 - - - - - - -
25/11:14pm 7.2 W 50 67 998.9 - 4.8 - - - - - - -
25/11:10pm 6.9 W 49 73 999.3 - 4.8 - - - - - - -
25/11:03pm 5.6 W 62 73 998.7 - 4.8 - - - - - - -
25/11:01pm 5.1 W 66 73 998.2 - 4.6 - - - - - - -
25/11:00pm 6.5 W 51 73 998.3 - 4.6 - - - - - - -
25/10:33pm 6.7 W 53 72 998.8 - 4.4 - - - - - - -
25/10:30pm 5.9 W 64 79 998.5 - 4.4 - - - - - - -

Other Formats:

Comma delimited format used in spreadsheet applications
http://www.bom.gov.au/fwo/IDT60701/IDT60701.94949.axf

JavaScript Object Notation format (JSON) in row-major order
http://www.bom.gov.au/fwo/IDT60701/IDT60701.94949.json